Terminal Aerodrome Forecast
Issued by NWS Memphis, TN

Home | Current Version | Previous Version | Text Only | Print | Product List | Glossary On
Versions: 1 2 3 4 5 6 7 8 9 10 11 12 13 14 15
000
FTUS44 KMEG 281734
TAFMKL
TAF
KMKL 281734Z 2818/2918 17010KT P6SM VCSH OVC020
     FM282000 17012G18KT P6SM SCT025 BKN040
     FM290000 17012G18KT P6SM SCT040 BKN250
     FM290900 17012G18KT P6SM BKN012
     FM291600 16015G25KT P6SM SCT025 BKN035=

USA.gov is the U.S. government's official web portal to all federal, state and local government web resources and services.